Huvudsida
METAR-TAF:

METAR-TAF

Flygplatser :

Karlstad Airport

Karlstad, Sverige

latitud: 59-26-41N, longitud: 013-20-15E, höjd: 107 m

Aktuellt väderrapport

Denna rapport gjordes för 33 minuter sedan, klockan 09:20 UTC
Vind 5 kt från nord/nordost
Temperatur -7°C
Fuktighet 100%
Tryck 1035 hPa
Sikt 10 km eller mer

METAR: ESOK 150920Z AUTO 03005KT 9999 OVC004/// M07/M07 Q1035

Tid: 10:53 (09:53 UTC)

Väderprognos

Denna rapport gjordes för 6 timmar och 23 minuter sedan, klockan 03:30 UTC
Prognos gäller från 15 kl. 04 UTC till 15 kl. 07 UTC
Vind 5 kt från nordost
Sikt 10 km eller mer
Brutna moln på en höjd av 300 ft
Sannolikhet 40%
från 15 kl. 04 UTC till 15 kl. 07 UTC
Få moln på en höjd av 400 ft
Mulet på en höjd av 2000 ft

TAF: ESOK 150330Z 1504/1507 05005KT 9999 BKN003 PROB40 1504/1507 FEW004 OVC020

Aktuella väderrapporter och prognoser från 4000 flygplatser (METAR- och TAF-rapporter).

De tillgängliga stationerna syns som gula och röda prickar på kartan.

För musen över prickarna för att se namnen på stationerna.

Klicka sedan för att få väderrapporter och prognoser.

För att ändra kartan: Klicka på de gröna knapparna med ett svart kors på för att zooma in; den gröna knappen med ett streck på för att zooma ut; eller på de gröna pilarna för angränsande kartor.


METAR-TAF: